Terminal Aerodrome Forecast
Issued by NWS

Home | Current Version | Previous Version | Text Only | Print | Product List | Glossary On
Versions: 1 2 3 4 5 6 7 8 9 10 11 12 13 14 15 16 17 18 19 20 21 22 23 24 25 26 27 28 29 30 31 32 33 34 35 36 37 38 39 40 41
171
FTUS41 KBOX 290535 AAA
TAFACK
TAF AMD
KACK 290535Z 2906/3006 24009KT 5SM BR SCT003
     FM291100 22013KT 3SM BR VCSH BKN008
     FM291300 22014KT 2SM BR VCTS BKN008CB
     FM291500 24016G20KT P6SM SCT140
     FM300400 30011KT P6SM BKN070=

USA.gov is the U.S. government's official web portal to all federal, state and local government web resources and services.